Terminal Aerodrome Forecast
Issued by NWS

Home | Current Version | Previous Version | Text Only | Print | Product List | Glossary On
Versions: 1 2 3 4 5 6 7 8 9 10 11 12 13 14
000
FTPA31 PHFO 260137 AAB
TAFHOG
TAF AMD
PHOG 260137Z 2602/2624 07010KT P6SM -SHRA SCT020 BKN040
      WS010/23015KT
     FM260400 08006KT P6SM FEW025 BKN060
     FM261000 12005KT P6SM SCT060
     FM262000 05012G18KT P6SM SCT025 SCT050
      AMD LTD TO VIS AND WIND 2609/2616=

USA.gov is the U.S. government's official web portal to all federal, state and local government web resources and services.